Time;durP1;ratioP1;P1;durP2;ratioP2;P2;SDS_P1;SDS_P2;PMS_P1;PMS_P2;Temp;Humidity;BMP_temperature;BMP_pressure;BME280_temperature;BME280_humidity;BME280_pressure;Samples;Min_cycle;Max_cycle;Signal;HPM_P1;HPM_P2
2022/01/13 00:02:20;;;;;;;;;5.75;4.75;;;;;20.25;32.37;103567.31;4976335;28;45414;-57
2022/01/13 00:04:47;;;;;;;;;11.25;10.25;;;;;20.22;32.13;103554.22;4993950;28;45371;-54
2022/01/13 00:07:13;;;;;;;;;13.25;10.75;;;;;20.21;32.06;103555.97;4993886;28;45322;-56
2022/01/13 00:09:38;;;;;;;;;13.25;12.50;;;;;20.20;32.21;103553.34;4993460;27;45540;-56
2022/01/13 00:12:08;;;;;;;;;8.50;8.00;;;;;20.20;32.26;103556.84;4993548;28;45874;-57
2022/01/13 00:22:15;;;;;;;;;12.50;10.50;;;;;20.13;32.29;103554.28;4993371;28;45900;-55
2022/01/13 00:24:44;;;;;;;;;8.25;8.25;;;;;20.13;32.34;103559.53;4993573;28;45217;-52
2022/01/13 00:27:12;;;;;;;;;9.50;9.50;;;;;20.11;32.57;103554.31;4993702;28;45382;-58
2022/01/13 00:29:43;;;;;;;;;10.25;10.25;;;;;20.08;32.29;103552.59;4975589;28;48563;-60
2022/01/13 00:32:10;;;;;;;;;10.75;10.50;;;;;20.07;32.58;103548.22;4993494;28;45373;-54
2022/01/13 00:34:36;;;;;;;;;10.75;10.25;;;;;20.06;32.34;103549.09;4993454;28;45346;-55
2022/01/13 00:37:02;;;;;;;;;11.50;9.25;;;;;20.04;32.15;103547.38;4993643;28;45357;-59
2022/01/13 00:39:27;;;;;;;;;13.00;11.67;;;;;20.03;32.18;103551.75;4993178;28;46527;-58
2022/01/13 00:41:53;;;;;;;;;9.75;9.75;;;;;20.02;32.41;103552.63;4993398;28;45258;-56
2022/01/13 00:44:21;;;;;;;;;13.50;10.00;;;;;20.01;32.47;103548.25;4993251;28;45382;-57
2022/01/13 00:46:59;;;;;;;;;13.75;12.00;;;;;19.98;32.62;103545.69;4975894;28;45656;-59
2022/01/13 00:49:25;;;;;;;;;9.50;9.00;;;;;19.98;32.78;103544.78;4993462;28;45395;-59
2022/01/13 00:51:52;;;;;;;;;10.50;10.50;;;;;19.97;32.41;103543.94;4993309;28;45323;-56
2022/01/13 00:54:17;;;;;;;;;11.00;9.75;;;;;19.95;32.69;103540.44;4993137;28;45274;-59
2022/01/13 00:56:43;;;;;;;;;9.50;9.50;;;;;19.96;32.89;103543.91;4993108;28;45177;-59
2022/01/13 00:59:11;;;;;;;;;12.50;12.50;;;;;19.98;32.65;103544.78;4992791;28;45357;-55
2022/01/13 01:01:39;;;;;;;;;9.75;9.00;;;;;19.98;32.55;103540.41;4992820;28;45871;-59
2022/01/13 01:04:05;;;;;;;;;12.25;10.00;;;;;20.00;32.63;103537.75;4993045;28;45481;-54
2022/01/13 01:06:31;;;;;;;;;13.50;9.25;;;;;20.03;32.73;103538.59;4993156;28;45546;-56
2022/01/13 01:08:57;;;;;;;;;16.50;12.00;;;;;20.06;32.54;103543.81;4992565;28;45478;-56
2022/01/13 01:11:25;;;;;;;;;16.50;10.75;;;;;20.10;32.76;103542.03;4993059;28;45232;-54
2022/01/13 01:13:51;;;;;;;;;12.75;8.75;;;;;20.14;32.36;103545.50;4995839;28;45702;-55
2022/01/13 01:16:18;;;;;;;;;13.00;10.50;;;;;20.17;32.55;103540.22;4996076;27;45557;-57
2022/01/13 01:21:33;;;;;;;;;8.50;7.75;;;;;20.24;32.23;103555.94;4995772;28;45701;-56
2022/01/13 01:26:47;;;;;;;;;10.25;8.50;;;;;20.29;32.19;103540.06;4995758;28;45269;-57
2022/01/13 01:31:47;;;;;;;;;9.25;9.25;;;;;20.34;32.32;103540.03;4995659;28;45285;-59
2022/01/13 01:36:55;;;;;;;;;8.50;7.50;;;;;20.38;32.70;103539.97;4996078;28;45237;-54
2022/01/13 01:39:20;;;;;;;;;11.25;9.50;;;;;20.41;32.79;103541.69;4995512;28;47470;-56
2022/01/13 01:41:49;;;;;;;;;11.75;9.00;;;;;20.44;32.23;103541.66;4995399;28;45344;-57
2022/01/13 01:44:25;;;;;;;;;11.75;9.75;;;;;20.44;32.08;103539.03;4978075;28;45404;-54
2022/01/13 01:46:51;;;;;;;;;10.25;9.25;;;;;20.45;32.42;103542.53;4977852;28;45411;-52
2022/01/13 01:49:20;;;;;;;;;8.25;8.25;;;;;20.48;32.68;103550.38;4994066;28;47451;-56
2022/01/13 01:51:49;;;;;;;;;9.50;9.00;;;;;20.47;32.57;103540.72;4995572;28;45733;-60
2022/01/13 01:54:15;;;;;;;;;9.75;9.75;;;;;20.47;32.23;103543.38;4995547;27;45413;-60
2022/01/13 01:56:41;;;;;;;;;9.00;8.00;;;;;20.47;32.33;103539.00;4978012;28;45368;-60
2022/01/13 01:59:15;;;;;;;;;12.25;9.50;;;;;20.47;32.63;103538.09;4977425;28;48394;-49
2022/01/13 02:01:41;;;;;;;;;9.00;9.00;;;;;20.48;32.62;103545.13;4978217;28;45464;-60
2022/01/13 02:04:07;;;;;;;;;11.50;10.25;;;;;20.47;32.64;103544.25;4995516;27;45408;-59
2022/01/13 02:06:35;;;;;;;;;8.75;8.50;;;;;20.47;32.17;103552.16;4995668;28;45636;-60
2022/01/13 02:09:00;;;;;;;;;12.00;9.00;;;;;20.48;32.51;103553.03;4995052;28;46158;-58
2022/01/13 02:11:27;;;;;;;;;12.50;11.25;;;;;20.48;32.23;103556.53;4995697;28;45304;-58
2022/01/13 02:13:56;;;;;;;;;14.50;10.50;;;;;20.47;32.27;103556.53;4995297;28;45318;-59
2022/01/13 02:18:59;;;;;;;;;9.75;9.75;;;;;20.47;32.46;103559.19;4995252;28;45288;-57
2022/01/13 02:21:26;;;;;;;;;10.00;9.00;;;;;20.45;31.92;103561.84;4995309;28;45323;-60
2022/01/13 02:23:53;;;;;;;;;9.50;9.50;;;;;20.45;32.42;103555.72;4994834;28;45421;-58
2022/01/13 02:26:19;;;;;;;;;8.75;7.75;;;;;20.45;32.25;103572.38;4995189;28;45280;-58
2022/01/13 02:28:45;;;;;;;;;9.25;9.25;;;;;20.44;32.30;103569.78;4994740;28;46408;-59
2022/01/13 02:31:12;;;;;;;;;9.50;9.50;;;;;20.43;32.31;103565.38;4995051;28;45346;-60
2022/01/13 02:33:38;;;;;;;;;7.50;7.25;;;;;20.41;32.38;103565.38;4995130;27;45305;-56
2022/01/13 02:36:06;;;;;;;;;6.75;6.75;;;;;20.39;32.38;103568.06;4995128;28;45557;-58
2022/01/13 02:38:31;;;;;;;;;9.75;7.75;;;;;20.39;32.18;103565.41;4994466;27;46580;-58
2022/01/13 02:40:59;;;;;;;;;9.50;7.00;;;;;20.39;32.13;103564.56;4995018;28;45347;-58
2022/01/13 02:43:26;;;;;;;;;9.75;9.00;;;;;20.37;32.47;103561.06;4994890;27;45411;-58
2022/01/13 02:46:06;;;;;;;;;9.50;9.00;;;;;20.35;32.08;103554.94;4995056;28;45419;-58
2022/01/13 02:48:33;;;;;;;;;9.50;9.50;;;;;20.33;32.28;103543.53;4994720;28;45597;-54
2022/01/13 02:50:59;;;;;;;;;8.00;7.50;;;;;20.33;32.46;103552.34;4994973;28;45836;-57
2022/01/13 02:53:25;;;;;;;;;9.25;8.00;;;;;20.32;32.20;103549.69;4994773;27;45388;-55
2022/01/13 02:55:56;;;;;;;;;10.75;7.25;;;;;20.31;32.76;103553.22;4994864;27;45691;-57
2022/01/13 02:58:22;;;;;;;;;10.50;8.00;;;;;20.28;32.87;103543.59;4994408;28;47021;-50
2022/01/13 03:00:47;;;;;;;;;9.75;8.00;;;;;20.28;32.75;103559.41;4994482;28;45924;-52
2022/01/13 03:03:13;;;;;;;;;7.00;7.00;;;;;20.27;32.80;103556.78;4994655;28;45391;-56
2022/01/13 03:05:39;;;;;;;;;8.00;7.25;;;;;20.22;32.18;103543.69;4994802;28;45619;-53
2022/01/13 03:08:06;;;;;;;;;9.50;7.75;;;;;20.21;32.67;103555.97;4993921;28;45622;-51
2022/01/13 03:10:32;;;;;;;;;7.50;7.25;;;;;20.21;32.47;103544.56;4976935;28;45892;-49
2022/01/13 03:12:58;;;;;;;;;8.00;6.50;;;;;20.19;32.82;103544.56;4994833;27;45368;-49
2022/01/13 03:15:24;;;;;;;;;6.50;6.50;;;;;20.17;32.30;103551.63;4977109;28;45583;-55
2022/01/13 03:17:49;;;;;;;;;7.25;7.25;;;;;20.17;32.80;103550.75;4994361;28;46448;-47
2022/01/13 03:20:15;;;;;;;;;9.75;7.00;;;;;20.14;32.69;103545.50;4994128;28;45268;-50
2022/01/13 03:22:40;;;;;;;;;8.75;6.75;;;;;20.14;32.61;103554.28;4976802;28;45371;-49
2022/01/13 03:25:06;;;;;;;;;11.00;6.75;;;;;20.11;32.53;103542.91;4994732;28;45399;-54
2022/01/13 03:27:35;;;;;;;;;6.75;6.75;;;;;20.10;32.35;103539.41;4994509;28;47382;-54
2022/01/13 03:30:06;;;;;;;;;7.25;6.75;;;;;20.09;32.26;103542.91;4994578;28;45284;-59
2022/01/13 03:32:33;;;;;;;;;6.75;6.00;;;;;20.08;32.49;103547.31;4994642;28;45447;-57
2022/01/13 03:35:04;;;;;;;;;8.00;6.50;;;;;20.05;32.26;103542.09;4993796;28;45465;-59
2022/01/13 03:37:30;;;;;;;;;10.25;7.00;;;;;20.02;32.69;103536.84;4994549;27;45458;-59
2022/01/13 03:39:57;;;;;;;;;8.00;7.00;;;;;20.06;32.71;103549.09;4994144;28;45381;-58
2022/01/13 03:42:23;;;;;;;;;6.25;5.75;;;;;20.07;32.43;103547.31;4994284;27;45274;-56
2022/01/13 03:44:49;;;;;;;;;5.50;5.50;;;;;20.10;32.42;103546.44;4994615;28;45317;-56
2022/01/13 03:47:15;;;;;;;;;5.75;5.75;;;;;20.11;32.46;103535.88;4994039;28;45601;-58
2022/01/13 03:49:41;;;;;;;;;6.50;6.50;;;;;20.15;32.63;103536.72;4994122;28;45330;-53
2022/01/13 03:52:12;;;;;;;;;4.50;4.50;;;;;20.18;32.49;103539.31;4994089;27;45417;-56
2022/01/13 03:55:02;;;;;;;;;8.25;7.00;;;;;20.22;32.52;103543.69;4994295;28;45405;-55
2022/01/13 03:57:33;;;;;;;;;6.25;5.00;;;;;20.24;32.71;103540.13;4976144;28;48524;-52
2022/01/13 04:00:17;;;;;;;;;5.00;5.00;;;;;20.27;32.31;103544.47;4976040;28;45939;-55
2022/01/13 04:02:42;;;;;;;;;6.50;5.25;;;;;20.30;32.66;103541.81;4994226;28;45496;-58
2022/01/13 04:05:08;;;;;;;;;9.50;6.25;;;;;20.33;32.47;103541.78;4994159;28;45399;-57
2022/01/13 04:07:34;;;;;;;;;7.00;7.00;;;;;20.34;32.20;103540.88;4994097;28;45406;-59
2022/01/13 04:09:59;;;;;;;;;8.00;5.00;;;;;20.37;32.59;103543.47;4993914;28;45446;-54
2022/01/13 04:12:27;;;;;;;;;10.00;6.75;;;;;20.38;32.61;103542.59;4993977;28;45445;-56
2022/01/13 04:14:59;;;;;;;;;7.75;6.75;;;;;20.42;32.44;103539.94;4994181;28;45357;-58
2022/01/13 04:17:25;;;;;;;;;5.25;5.25;;;;;20.45;32.57;103539.91;4993530;28;46929;-59
2022/01/13 04:19:52;;;;;;;;;6.00;6.00;;;;;20.48;32.18;103545.13;4993618;28;45488;-58
2022/01/13 04:22:18;;;;;;;;;4.50;4.50;;;;;20.47;32.48;103549.53;4993541;28;45309;-58
2022/01/13 04:24:49;;;;;;;;;5.50;4.75;;;;;20.50;32.27;103546.88;4994050;28;45532;-58
2022/01/13 04:27:23;;;;;;;;;5.00;5.00;;;;;20.52;32.58;103542.41;4975802;28;45566;-57
2022/01/13 04:30:00;;;;;;;;;6.00;5.00;;;;;20.53;32.54;103549.44;4993506;28;45414;-57
2022/01/13 04:32:26;;;;;;;;;5.00;5.00;;;;;20.54;32.48;103532.75;4993850;28;45466;-55
2022/01/13 04:34:51;;;;;;;;;5.00;5.00;;;;;20.54;32.40;103530.09;4993777;28;45403;-57
2022/01/13 04:37:17;;;;;;;;;5.50;5.00;;;;;20.55;32.30;103525.72;4993226;28;47008;-59
2022/01/13 04:39:42;;;;;;;;;6.00;5.00;;;;;20.55;32.65;103537.13;4993248;28;45343;-59
2022/01/13 04:42:10;;;;;;;;;7.25;5.25;;;;;20.55;32.58;103528.38;4993300;28;45283;-56
2022/01/13 04:44:35;;;;;;;;;6.50;6.50;;;;;20.55;32.04;103528.38;4992589;28;45404;-57
2022/01/13 04:47:07;;;;;;;;;6.25;5.00;;;;;20.54;32.26;103530.09;4994722;28;46141;-58
2022/01/13 04:49:32;;;;;;;;;5.75;5.75;;;;;20.55;32.46;103536.25;4996577;28;45275;-55
2022/01/13 04:51:58;;;;;;;;;4.25;4.25;;;;;20.54;32.27;103538.00;4996314;28;45811;-59
2022/01/13 04:54:23;;;;;;;;;5.25;4.50;;;;;20.54;32.13;103535.38;4996425;28;45433;-49
2022/01/13 04:59:14;;;;;;;;;4.00;4.00;;;;;20.53;31.81;103532.78;4996013;28;45348;-56
2022/01/13 05:01:39;;;;;;;;;4.50;3.50;;;;;20.54;31.83;103542.44;4996093;28;45220;-57
2022/01/13 05:04:06;;;;;;;;;5.75;5.75;;;;;20.53;31.76;103538.03;4995394;28;45311;-57
2022/01/13 05:06:32;;;;;;;;;5.25;4.00;;;;;20.51;31.67;103550.34;4995662;27;46225;-55
2022/01/13 05:08:57;;;;;;;;;4.75;4.75;;;;;20.50;31.75;103546.88;4995889;28;45244;-54
2022/01/13 05:11:23;;;;;;;;;5.00;5.00;;;;;20.48;31.88;103540.75;4995986;28;45822;-48
2022/01/13 05:13:49;;;;;;;;;7.00;5.00;;;;;20.49;32.26;103545.13;4996278;28;45329;-50
2022/01/13 05:23:57;;;;;;;;;7.25;7.00;;;;;20.45;32.31;103545.19;4975175;27;45449;-57
2022/01/13 05:26:23;;;;;;;;;4.50;4.00;;;;;20.45;31.95;103546.03;4995788;27;45332;-59
2022/01/13 05:28:49;;;;;;;;;4.00;4.00;;;;;20.43;32.19;103546.94;4995773;28;45411;-59
2022/01/13 05:31:15;;;;;;;;;3.75;3.75;;;;;20.39;32.12;103538.22;4995790;28;45348;-58
2022/01/13 05:33:41;;;;;;;;;4.25;4.25;;;;;20.38;32.17;103539.97;4994492;28;45586;-51
2022/01/13 05:36:07;;;;;;;;;5.00;5.00;;;;;20.38;32.04;103542.59;4995801;28;47317;-49
2022/01/13 05:38:32;;;;;;;;;4.50;3.75;;;;;20.36;32.35;103533.84;4995589;28;45345;-51
2022/01/13 05:40:58;;;;;;;;;9.00;5.00;;;;;20.36;32.05;103536.47;4978005;28;45251;-48
2022/01/13 05:43:24;;;;;;;;;6.00;4.75;;;;;20.34;32.41;103537.38;4995822;28;45398;-47
2022/01/13 05:45:50;;;;;;;;;4.00;4.00;;;;;20.33;32.33;103535.63;4995525;28;46426;-48
2022/01/13 05:48:15;;;;;;;;;4.00;4.00;;;;;20.31;32.37;103530.41;4995385;28;45233;-49
2022/01/13 05:50:40;;;;;;;;;8.00;5.25;;;;;20.30;32.12;103530.41;4995670;27;45289;-51
2022/01/13 05:53:06;;;;;;;;;5.25;4.00;;;;;20.27;32.39;103528.69;4996079;27;45528;-50
2022/01/13 05:55:32;;;;;;;;;5.00;5.00;;;;;20.26;32.31;103529.56;4995349;28;46532;-45
2022/01/13 05:57:57;;;;;;;;;4.75;4.50;;;;;20.26;32.06;103532.19;4994629;27;45461;-45
2022/01/13 06:00:24;;;;;;;;;5.00;4.50;;;;;20.24;32.33;103536.59;4995436;27;45300;-47
2022/01/13 06:02:51;;;;;;;;;3.75;3.25;;;;;20.22;32.25;103533.16;4995600;28;45449;-51
2022/01/13 06:05:18;;;;;;;;;5.25;4.00;;;;;20.20;31.96;103529.66;4995247;28;46709;-49
2022/01/13 06:07:43;;;;;;;;;4.00;4.00;;;;;20.19;31.99;103527.91;4995195;28;45318;-48
2022/01/13 06:10:13;;;;;;;;;3.50;3.50;;;;;20.17;32.22;103527.03;4995527;28;45337;-48
2022/01/13 06:12:39;;;;;;;;;4.50;4.50;;;;;20.17;32.33;103542.84;4995749;27;45402;-53
2022/01/13 06:15:08;;;;;;;;;4.00;4.00;;;;;20.14;32.24;103541.13;4995095;28;45583;-56
2022/01/13 06:17:34;;;;;;;;;3.50;3.50;;;;;20.13;32.45;103535.84;4977506;28;45954;-51
2022/01/13 06:20:00;;;;;;;;;5.00;5.00;;;;;20.14;32.13;103534.97;4995153;28;45445;-56
2022/01/13 06:22:25;;;;;;;;;4.50;4.50;;;;;20.15;32.49;103537.59;4995297;27;45557;-50
2022/01/13 06:24:52;;;;;;;;;4.00;4.00;;;;;20.15;32.41;103531.44;4994970;28;45794;-54
2022/01/13 06:27:19;;;;;;;;;5.75;4.50;;;;;20.19;32.53;103538.44;4995014;28;45333;-53
2022/01/13 06:29:44;;;;;;;;;5.25;3.75;;;;;20.20;32.36;103540.19;4995164;28;45324;-53
2022/01/13 06:32:10;;;;;;;;;4.75;4.75;;;;;20.24;32.72;103542.75;4977801;28;45507;-51
2022/01/13 06:34:35;;;;;;;;;5.25;5.25;;;;;20.26;32.51;103540.09;4994904;27;45455;-45
2022/01/13 06:37:01;;;;;;;;;4.00;4.00;;;;;20.29;32.59;103539.19;4994836;28;45331;-53
2022/01/13 06:39:26;;;;;;;;;6.00;4.00;;;;;20.31;32.27;103543.56;4995089;28;45481;-51
2022/01/13 06:41:51;;;;;;;;;4.75;4.00;;;;;20.34;32.36;103538.25;4977375;28;45245;-52
2022/01/13 06:44:17;;;;;;;;;5.75;4.75;;;;;20.35;32.49;103537.34;4994747;28;46022;-56
2022/01/13 06:46:42;;;;;;;;;3.25;3.25;;;;;20.39;32.38;103538.22;4995091;27;45425;-46
2022/01/13 06:49:07;;;;;;;;;5.75;5.75;;;;;20.42;32.26;103540.78;4995077;27;45342;-55
2022/01/13 06:51:33;;;;;;;;;4.00;4.00;;;;;20.45;32.43;103540.75;4977548;28;45283;-47
2022/01/13 06:53:58;;;;;;;;;5.00;5.00;;;;;20.47;32.11;103538.09;4994630;28;46273;-52
2022/01/13 06:56:24;;;;;;;;;6.75;5.00;;;;;20.48;32.48;103546.00;4994666;28;45231;-55
2022/01/13 06:58:51;;;;;;;;;4.50;4.50;;;;;20.50;32.59;103544.22;4994827;28;45417;-52
2022/01/13 07:01:17;;;;;;;;;3.50;3.50;;;;;20.53;32.05;103548.59;4994617;27;45491;-54
2022/01/13 07:03:43;;;;;;;;;4.75;4.75;;;;;20.54;31.97;103543.28;4994827;27;46216;-53
2022/01/13 07:06:08;;;;;;;;;5.75;4.75;;;;;20.55;32.10;103544.16;4994544;28;45331;-56
2022/01/13 07:08:34;;;;;;;;;4.00;4.00;;;;;20.58;32.11;103537.97;4994448;27;45451;-52
2022/01/13 07:11:02;;;;;;;;;5.25;4.00;;;;;20.59;31.73;103545.84;4975051;28;45442;-52
2022/01/13 07:13:28;;;;;;;;;4.00;4.00;;;;;20.59;32.29;103543.22;4994317;28;46439;-53
2022/01/13 07:15:53;;;;;;;;;3.00;3.00;;;;;20.61;31.91;103551.97;4994445;28;45213;-53
2022/01/13 07:18:19;;;;;;;;;5.25;5.25;;;;;20.61;32.32;103549.34;4993241;28;45249;-51
2022/01/13 07:20:45;;;;;;;;;4.00;4.00;;;;;20.60;32.17;103544.97;4994924;27;45346;-45
2022/01/13 07:23:11;;;;;;;;;4.75;4.00;;;;;20.61;31.77;103548.50;4994531;27;45346;-56
2022/01/13 07:25:36;;;;;;;;;3.00;3.00;;;;;20.62;31.69;103555.47;4994348;28;45379;-51
2022/01/13 07:28:02;;;;;;;;;3.50;3.50;;;;;20.61;32.13;103551.97;4994369;28;45170;-57
2022/01/13 07:30:28;;;;;;;;;3.75;3.50;;;;;20.61;31.66;103551.97;4994503;28;45433;-57
2022/01/13 07:32:53;;;;;;;;;4.50;4.50;;;;;20.60;31.66;103555.50;4994114;28;45405;-53
2022/01/13 07:35:18;;;;;;;;;4.25;4.00;;;;;20.60;31.56;103555.50;4994219;27;45510;-57
2022/01/13 07:37:44;;;;;;;;;6.25;6.00;;;;;20.59;31.83;103555.53;4994667;28;45393;-57
2022/01/13 07:40:13;;;;;;;;;4.00;4.00;;;;;20.61;31.46;103562.53;4994356;28;45326;-56
2022/01/13 07:42:42;;;;;;;;;4.75;3.50;;;;;20.59;31.56;103553.75;4993992;27;46542;-57
2022/01/13 07:45:08;;;;;;;;;5.00;5.00;;;;;20.58;31.99;103551.16;4976933;28;45368;-59
2022/01/13 07:47:34;;;;;;;;;4.00;4.00;;;;;20.57;31.39;103550.28;4994227;28;45335;-60
2022/01/13 07:49:59;;;;;;;;;3.75;3.75;;;;;20.55;32.00;103549.44;4994377;27;45363;-54
2022/01/13 07:52:26;;;;;;;;;5.75;5.75;;;;;20.53;31.81;103551.22;4993992;27;46537;-54
2022/01/13 07:54:52;;;;;;;;;5.00;3.00;;;;;20.54;31.92;103555.59;4994033;27;45330;-56
2022/01/13 07:57:17;;;;;;;;;4.00;4.00;;;;;20.54;31.96;103552.97;4993989;28;45422;-54
2022/01/13 07:59:42;;;;;;;;;4.75;4.00;;;;;20.51;31.59;103545.94;4994494;28;45491;-58
2022/01/13 08:02:08;;;;;;;;;7.25;3.25;;;;;20.51;31.59;103545.09;4993699;28;46010;-57
2022/01/13 08:04:33;;;;;;;;;5.00;4.25;;;;;20.50;31.95;103546.88;4976186;28;45216;-56
2022/01/13 08:06:59;;;;;;;;;6.00;4.00;;;;;20.49;31.70;103544.22;4993821;28;45205;-53
2022/01/13 08:09:25;;;;;;;;;3.50;3.50;;;;;20.48;31.78;103540.75;4994013;28;45178;-58
2022/01/13 08:11:51;;;;;;;;;5.75;5.00;;;;;20.47;32.11;103538.09;4993676;28;46011;-58
2022/01/13 08:14:16;;;;;;;;;5.25;5.25;;;;;20.46;32.18;103539.00;4993953;28;45285;-58
2022/01/13 08:16:44;;;;;;;;;5.50;4.00;;;;;20.45;32.18;103539.91;4993829;28;45275;-55
2022/01/13 08:21:53;;;;;;;;;5.00;4.00;;;;;20.42;31.86;103542.56;4992991;28;45521;-56
2022/01/13 08:24:18;;;;;;;;;4.50;3.50;;;;;20.42;32.11;103542.56;4993620;28;45415;-49
2022/01/13 08:26:44;;;;;;;;;4.75;4.00;;;;;20.38;31.85;103534.69;4993998;27;45631;-58
2022/01/13 08:29:09;;;;;;;;;6.25;5.75;;;;;20.37;31.98;103540.84;4976088;28;45563;-56
2022/01/13 08:31:35;;;;;;;;;5.00;5.00;;;;;20.35;32.05;103542.63;4993322;28;45622;-52
2022/01/13 08:34:00;;;;;;;;;5.75;4.75;;;;;20.32;31.94;103529.50;4993378;28;45356;-52
2022/01/13 08:36:25;;;;;;;;;4.50;4.50;;;;;20.33;31.94;103533.00;4976083;28;45701;-55
2022/01/13 08:38:51;;;;;;;;;4.00;4.00;;;;;20.31;31.87;103540.03;4993472;28;45584;-58
2022/01/13 08:41:17;;;;;;;;;5.00;5.00;;;;;20.30;31.74;103539.19;4993423;28;45962;-53
2022/01/13 08:43:42;;;;;;;;;4.00;4.00;;;;;20.28;32.42;103538.31;4993244;28;45422;-53
2022/01/13 08:46:08;;;;;;;;;4.00;4.00;;;;;20.28;31.70;103538.31;4993436;28;45378;-48
2022/01/13 08:48:34;;;;;;;;;7.50;6.00;;;;;20.26;32.06;103534.84;4993505;28;45494;-50
2022/01/13 08:51:00;;;;;;;;;5.00;5.00;;;;;20.26;32.15;103539.25;4993042;27;45373;-60
2022/01/13 08:53:26;;;;;;;;;5.25;5.25;;;;;20.23;31.78;103545.41;4975537;28;45266;-56
2022/01/13 08:55:54;;;;;;;;;3.75;3.75;;;;;20.21;31.96;103534.03;4993162;27;45238;-59
2022/01/13 08:58:20;;;;;;;;;5.00;4.75;;;;;20.19;31.95;103531.41;4993185;27;45302;-52
2022/01/13 09:00:45;;;;;;;;;4.00;3.75;;;;;20.19;32.09;103543.69;4993190;28;45456;-59
2022/01/13 09:03:11;;;;;;;;;5.25;4.00;;;;;20.16;32.55;103525.28;4992929;28;45252;-58
2022/01/13 09:05:38;;;;;;;;;6.75;6.00;;;;;20.19;32.19;103543.69;4993064;28;45405;-57
2022/01/13 09:08:06;;;;;;;;;4.50;4.50;;;;;20.17;32.26;103540.22;4993096;27;45379;-56
2022/01/13 09:10:32;;;;;;;;;5.75;4.50;;;;;20.21;32.48;103555.09;4992683;28;46288;-55
2022/01/13 09:12:58;;;;;;;;;5.00;5.00;;;;;20.22;32.55;103555.06;4992925;28;45820;-58
2022/01/13 09:15:58;;;;;;;;;7.00;7.00;;;;;20.27;32.61;103557.66;4992855;27;45349;-60
2022/01/13 09:18:29;;;;;;;;;6.00;5.00;;;;;20.30;31.89;103557.63;4995544;28;45437;-57
2022/01/13 09:20:55;;;;;;;;;6.25;6.25;;;;;20.33;32.39;103560.22;4992408;28;46461;-59
2022/01/13 09:23:20;;;;;;;;;5.00;5.00;;;;;20.36;32.42;103562.81;4974932;28;45972;-49
2022/01/13 09:25:46;;;;;;;;;5.50;5.50;;;;;20.39;32.14;103561.94;4993148;27;45320;-49
2022/01/13 09:28:11;;;;;;;;;6.00;6.00;;;;;20.43;32.49;103570.66;4992899;28;45307;-44
2022/01/13 09:30:37;;;;;;;;;7.00;7.00;;;;;20.45;32.26;103571.53;4992457;28;45417;-48
2022/01/13 09:33:03;;;;;;;;;5.75;5.75;;;;;20.47;32.05;103574.97;4992793;28;45368;-55
2022/01/13 09:35:29;;;;;;;;;5.00;5.00;;;;;20.51;32.03;103576.72;4995803;28;45387;-59
2022/01/13 09:37:54;;;;;;;;;7.00;6.25;;;;;20.53;31.91;103577.56;4996037;27;45209;-60
2022/01/13 09:40:19;;;;;;;;;7.00;6.00;;;;;20.54;32.15;103582.81;4995780;28;45483;-58
2022/01/13 09:42:46;;;;;;;;;6.50;5.00;;;;;20.57;31.71;103587.16;4995638;28;45393;-56
2022/01/13 09:45:14;;;;;;;;;7.50;5.75;;;;;20.59;32.17;103579.25;4995773;27;45240;-54
2022/01/13 09:47:41;;;;;;;;;7.75;7.00;;;;;20.60;32.36;103587.13;4995967;28;45381;-58
2022/01/13 09:50:10;;;;;;;;;5.75;5.75;;;;;20.62;31.92;103584.47;4978029;28;46927;-57
2022/01/13 09:52:37;;;;;;;;;6.50;6.50;;;;;20.65;32.20;103594.97;4995647;28;45837;-58
2022/01/13 09:55:05;;;;;;;;;7.00;5.50;;;;;20.65;32.22;103593.22;4995605;27;45300;-56
2022/01/13 09:57:30;;;;;;;;;7.00;7.00;;;;;20.67;32.06;103585.28;4995711;28;45335;-60
2022/01/13 09:59:58;;;;;;;;;7.00;7.00;;;;;20.66;32.06;103586.19;4995417;28;45497;-59
2022/01/13 10:02:24;;;;;;;;;10.75;6.00;;;;;20.67;31.80;103582.66;4977738;28;45861;-58
2022/01/13 10:04:53;;;;;;;;;5.50;5.50;;;;;20.68;31.80;103593.16;4995910;28;45288;-58
2022/01/13 10:07:37;;;;;;;;;7.00;6.25;;;;;20.68;31.92;103590.53;4995802;28;45276;-57
2022/01/13 10:10:06;;;;;;;;;7.25;7.25;;;;;20.68;31.91;103595.81;4995011;27;46199;-57
2022/01/13 10:12:37;;;;;;;;;8.25;7.25;;;;;20.68;31.87;103595.81;4977496;28;45973;-57
2022/01/13 10:17:52;;;;;;;;;9.75;7.25;;;;;20.66;31.94;103588.81;4995429;27;45548;-58
2022/01/13 10:20:20;;;;;;;;;9.75;8.25;;;;;20.66;31.94;103589.72;4994799;28;46321;-59
2022/01/13 10:22:48;;;;;;;;;8.25;7.75;;;;;20.64;32.01;103591.47;4977413;28;45727;-57
2022/01/13 10:25:34;;;;;;;;;9.25;8.25;;;;;20.62;31.94;103589.72;4995205;28;45364;-59
2022/01/13 10:28:21;;;;;;;;;2.00;2.00;;;;;20.61;31.57;103588.88;4977602;28;45621;-54
2022/01/13 10:30:52;;;;;;;;;6.00;6.00;;;;;20.59;31.69;103585.38;4994944;28;47250;-51
2022/01/13 10:33:24;;;;;;;;;9.00;7.00;;;;;20.57;31.44;103586.31;4995189;28;45553;-55
2022/01/13 10:35:52;;;;;;;;;10.50;7.50;;;;;20.55;31.77;103587.19;4995366;28;45173;-50
2022/01/13 10:38:19;;;;;;;;;9.50;9.50;;;;;20.53;31.49;103577.56;4995132;27;45554;-53
2022/01/13 10:40:52;;;;;;;;;6.00;6.00;;;;;20.52;31.49;103583.72;4994671;28;45450;-53
2022/01/13 10:43:23;;;;;;;;;8.75;7.25;;;;;20.50;31.84;103591.66;4976977;28;45356;-53
2022/01/13 10:45:50;;;;;;;;;10.25;9.00;;;;;20.49;31.56;103582.00;4994995;28;45274;-49
2022/01/13 10:48:23;;;;;;;;;8.50;8.50;;;;;20.47;31.45;103572.34;4994991;28;45211;-48
2022/01/13 10:50:56;;;;;;;;;10.25;10.00;;;;;20.47;31.55;103580.25;4994827;28;45491;-55
2022/01/13 10:53:23;;;;;;;;;7.50;6.75;;;;;20.46;32.10;103578.50;4995008;28;45284;-53
2022/01/13 10:55:55;;;;;;;;;8.75;8.75;;;;;20.45;31.65;103576.78;4994374;28;45252;-54
2022/01/13 10:58:31;;;;;;;;;8.75;8.25;;;;;20.43;31.52;103578.56;4977433;28;45498;-51
2022/01/13 11:00:57;;;;;;;;;13.00;9.50;;;;;20.42;32.05;103582.09;4994577;28;45621;-56
2022/01/13 11:03:25;;;;;;;;;11.00;8.50;;;;;20.42;31.85;103571.53;4994863;28;45808;-58
2022/01/13 11:05:54;;;;;;;;;9.25;9.25;;;;;20.41;31.72;103570.66;4995152;27;45232;-52
2022/01/13 11:08:23;;;;;;;;;11.00;7.25;;;;;20.41;31.83;103572.44;4994811;28;45331;-56
2022/01/13 11:10:51;;;;;;;;;12.00;10.75;;;;;20.37;31.89;103569.81;4994435;28;46314;-54
2022/01/13 11:13:19;;;;;;;;;7.75;7.75;;;;;20.37;32.12;103564.56;4994457;28;45915;-57
2022/01/13 11:15:49;;;;;;;;;8.75;8.75;;;;;20.36;31.87;103565.44;4994655;28;45537;-47
2022/01/13 11:18:17;;;;;;;;;12.75;9.75;;;;;20.35;32.27;103558.44;4994536;28;45379;-51
2022/01/13 11:20:42;;;;;;;;;11.00;9.25;;;;;20.34;32.17;103554.03;4994286;28;46503;-50
2022/01/13 11:23:08;;;;;;;;;12.75;11.50;;;;;20.33;31.80;103565.50;4994343;27;45438;-51
2022/01/13 11:25:34;;;;;;;;;9.25;8.50;;;;;20.33;32.03;103561.97;4994593;28;45337;-51
2022/01/13 11:28:00;;;;;;;;;11.00;11.00;;;;;20.32;31.76;103555.84;4976992;28;45463;-60
2022/01/13 11:30:28;;;;;;;;;9.75;9.00;;;;;20.32;32.35;103560.22;4994530;28;45363;-60
2022/01/13 11:32:55;;;;;;;;;11.00;10.00;;;;;20.34;32.52;103553.19;4994557;28;45902;-55
2022/01/13 11:35:26;;;;;;;;;11.00;8.75;;;;;20.36;32.00;103548.78;4994359;28;45301;-63
2022/01/13 11:37:53;;;;;;;;;9.25;8.75;;;;;20.35;32.12;103540.00;4994622;28;45432;-63
2022/01/13 11:40:27;;;;;;;;;11.50;10.00;;;;;20.35;32.50;103549.66;4993857;28;46421;-62
2022/01/13 11:42:58;;;;;;;;;9.25;9.25;;;;;20.34;31.87;103547.91;4994619;28;45319;-59
2022/01/13 11:45:24;;;;;;;;;11.25;11.00;;;;;20.32;32.54;103533.88;4994377;28;45522;-63
2022/01/13 11:48:14;;;;;;;;;12.00;11.00;;;;;20.30;32.53;103539.19;4994228;27;45382;-59
2022/01/13 11:50:45;;;;;;;;;16.75;14.25;;;;;20.27;32.18;103536.59;4976199;28;46751;-60
2022/01/13 11:53:22;;;;;;;;;27.25;20.75;;;;;20.27;32.59;103531.31;4993785;28;45535;-62
2022/01/13 11:56:14;;;;;;;;;31.00;27.50;;;;;20.24;32.65;103529.59;4975739;28;45443;-60
2022/01/13 11:58:45;;;;;;;;;40.25;34.75;;;;;20.23;32.70;103534.84;4994154;28;45484;-56
2022/01/13 12:01:27;;;;;;;;;48.75;38.25;;;;;20.21;33.13;103521.72;4993589;28;45545;-59